sensor_id;sensor_type;location;lat;lon;timestamp;temperature;humidity
37974;DHT22;23796;51.458;7.000;2022-08-18T00:01:46;20.20;99.90
37974;DHT22;23796;51.458;7.000;2022-08-18T00:04:15;20.20;99.90
37974;DHT22;23796;51.458;7.000;2022-08-18T00:06:41;20.20;99.90
37974;DHT22;23796;51.458;7.000;2022-08-18T00:09:08;20.20;99.90
37974;DHT22;23796;51.458;7.000;2022-08-18T00:11:42;20.10;99.90
37974;DHT22;23796;51.458;7.000;2022-08-18T00:14:19;20.10;99.90
37974;DHT22;23796;51.458;7.000;2022-08-18T00:16:48;20.10;99.90
37974;DHT22;23796;51.458;7.000;2022-08-18T00:19:16;20.10;99.90
37974;DHT22;23796;51.458;7.000;2022-08-18T00:21:44;20.10;99.90
37974;DHT22;23796;51.458;7.000;2022-08-18T00:24:12;20.10;99.90
37974;DHT22;23796;51.458;7.000;2022-08-18T00:26:38;20.00;99.90
37974;DHT22;23796;51.458;7.000;2022-08-18T00:29:06;20.00;99.90
37974;DHT22;23796;51.458;7.000;2022-08-18T00:31:32;20.00;99.90
37974;DHT22;23796;51.458;7.000;2022-08-18T00:34:00;20.00;99.90
37974;DHT22;23796;51.458;7.000;2022-08-18T00:36:26;20.00;99.90
37974;DHT22;23796;51.458;7.000;2022-08-18T00:38:54;20.00;99.90
37974;DHT22;23796;51.458;7.000;2022-08-18T00:41:22;20.00;99.90
37974;DHT22;23796;51.458;7.000;2022-08-18T00:43:51;20.00;99.90
37974;DHT22;23796;51.458;7.000;2022-08-18T00:46:29;20.00;99.90
37974;DHT22;23796;51.458;7.000;2022-08-18T00:48:58;20.00;99.90
37974;DHT22;23796;51.458;7.000;2022-08-18T00:51:44;20.00;99.90
37974;DHT22;23796;51.458;7.000;2022-08-18T00:54:22;20.00;99.90
37974;DHT22;23796;51.458;7.000;2022-08-18T00:56:54;20.00;99.90
37974;DHT22;23796;51.458;7.000;2022-08-18T00:59:36;20.00;99.90
37974;DHT22;23796;51.458;7.000;2022-08-18T01:02:06;19.90;99.90
37974;DHT22;23796;51.458;7.000;2022-08-18T01:05:00;19.90;99.90
37974;DHT22;23796;51.458;7.000;2022-08-18T01:07:35;19.90;99.90
37974;DHT22;23796;51.458;7.000;2022-08-18T01:10:04;19.90;99.90
37974;DHT22;23796;51.458;7.000;2022-08-18T01:12:32;19.90;99.90
37974;DHT22;23796;51.458;7.000;2022-08-18T01:15:04;19.80;99.90
37974;DHT22;23796;51.458;7.000;2022-08-18T01:17:29;19.80;99.90
37974;DHT22;23796;51.458;7.000;2022-08-18T01:20:20;19.80;99.90
37974;DHT22;23796;51.458;7.000;2022-08-18T01:23:14;19.80;99.90
37974;DHT22;23796;51.458;7.000;2022-08-18T01:25:41;19.70;99.90
37974;DHT22;23796;51.458;7.000;2022-08-18T01:28:34;19.70;99.90
37974;DHT22;23796;51.458;7.000;2022-08-18T01:31:02;19.60;99.90
37974;DHT22;23796;51.458;7.000;2022-08-18T01:33:40;19.50;99.90
37974;DHT22;23796;51.458;7.000;2022-08-18T01:36:15;19.40;99.90
37974;DHT22;23796;51.458;7.000;2022-08-18T01:38:48;19.30;99.90
37974;DHT22;23796;51.458;7.000;2022-08-18T01:41:15;19.30;99.90
37974;DHT22;23796;51.458;7.000;2022-08-18T01:43:41;19.20;99.90
37974;DHT22;23796;51.458;7.000;2022-08-18T01:46:07;19.20;99.90
37974;DHT22;23796;51.458;7.000;2022-08-18T01:48:34;19.20;99.90
37974;DHT22;23796;51.458;7.000;2022-08-18T01:51:04;19.20;99.90
37974;DHT22;23796;51.458;7.000;2022-08-18T01:53:30;19.30;99.90
37974;DHT22;23796;51.458;7.000;2022-08-18T01:55:58;19.30;99.90
37974;DHT22;23796;51.458;7.000;2022-08-18T01:58:24;19.30;99.90
37974;DHT22;23796;51.458;7.000;2022-08-18T02:00:53;19.30;99.90
37974;DHT22;23796;51.458;7.000;2022-08-18T02:03:24;19.30;99.90
37974;DHT22;23796;51.458;7.000;2022-08-18T02:05:54;19.30;99.90
37974;DHT22;23796;51.458;7.000;2022-08-18T02:08:20;19.30;99.90
37974;DHT22;23796;51.458;7.000;2022-08-18T02:10:48;19.30;99.90
37974;DHT22;23796;51.458;7.000;2022-08-18T02:13:14;19.30;99.90
37974;DHT22;23796;51.458;7.000;2022-08-18T02:15:40;19.20;99.90
37974;DHT22;23796;51.458;7.000;2022-08-18T02:18:13;19.20;99.90
37974;DHT22;23796;51.458;7.000;2022-08-18T02:20:39;19.20;99.90
37974;DHT22;23796;51.458;7.000;2022-08-18T02:23:07;19.20;99.90
37974;DHT22;23796;51.458;7.000;2022-08-18T02:25:35;19.20;99.90
37974;DHT22;23796;51.458;7.000;2022-08-18T02:28:01;19.20;99.90
37974;DHT22;23796;51.458;7.000;2022-08-18T02:30:27;19.20;99.90
37974;DHT22;23796;51.458;7.000;2022-08-18T02:32:57;19.20;99.90
37974;DHT22;23796;51.458;7.000;2022-08-18T02:35:25;19.20;99.90
37974;DHT22;23796;51.458;7.000;2022-08-18T02:37:51;19.10;99.90
37974;DHT22;23796;51.458;7.000;2022-08-18T02:40:17;19.10;99.90
37974;DHT22;23796;51.458;7.000;2022-08-18T02:42:46;19.00;99.90
37974;DHT22;23796;51.458;7.000;2022-08-18T02:45:12;19.00;99.90
37974;DHT22;23796;51.458;7.000;2022-08-18T02:47:38;19.00;99.90
37974;DHT22;23796;51.458;7.000;2022-08-18T02:50:05;19.10;99.90
37974;DHT22;23796;51.458;7.000;2022-08-18T02:52:34;19.00;99.90
37974;DHT22;23796;51.458;7.000;2022-08-18T02:55:00;18.90;99.90
37974;DHT22;23796;51.458;7.000;2022-08-18T02:57:30;19.00;99.90
37974;DHT22;23796;51.458;7.000;2022-08-18T02:59:59;19.00;99.90
37974;DHT22;23796;51.458;7.000;2022-08-18T03:02:27;19.10;99.90
37974;DHT22;23796;51.458;7.000;2022-08-18T03:04:52;19.20;99.90
37974;DHT22;23796;51.458;7.000;2022-08-18T03:07:18;19.20;99.90
37974;DHT22;23796;51.458;7.000;2022-08-18T03:09:44;19.20;99.90
37974;DHT22;23796;51.458;7.000;2022-08-18T03:12:09;19.20;99.90
37974;DHT22;23796;51.458;7.000;2022-08-18T03:14:36;19.10;99.90
37974;DHT22;23796;51.458;7.000;2022-08-18T03:17:07;19.00;99.90
37974;DHT22;23796;51.458;7.000;2022-08-18T03:19:34;18.90;99.90
37974;DHT22;23796;51.458;7.000;2022-08-18T03:22:02;18.90;99.90
37974;DHT22;23796;51.458;7.000;2022-08-18T03:24:30;18.90;99.90
37974;DHT22;23796;51.458;7.000;2022-08-18T03:26:59;18.80;99.90
37974;DHT22;23796;51.458;7.000;2022-08-18T03:29:25;18.80;99.90
37974;DHT22;23796;51.458;7.000;2022-08-18T03:31:51;18.70;99.90
37974;DHT22;23796;51.458;7.000;2022-08-18T03:34:19;18.70;99.90
37974;DHT22;23796;51.458;7.000;2022-08-18T03:36:45;18.70;99.90
37974;DHT22;23796;51.458;7.000;2022-08-18T03:39:12;18.70;99.90
37974;DHT22;23796;51.458;7.000;2022-08-18T03:41:44;18.60;99.90
37974;DHT22;23796;51.458;7.000;2022-08-18T03:44:14;18.70;99.90
37974;DHT22;23796;51.458;7.000;2022-08-18T03:46:43;18.80;99.90
37974;DHT22;23796;51.458;7.000;2022-08-18T03:49:09;18.90;99.90
37974;DHT22;23796;51.458;7.000;2022-08-18T03:51:36;18.80;99.90
37974;DHT22;23796;51.458;7.000;2022-08-18T03:54:03;18.80;99.90
37974;DHT22;23796;51.458;7.000;2022-08-18T03:56:38;18.70;99.90
37974;DHT22;23796;51.458;7.000;2022-08-18T03:59:08;18.70;99.90
37974;DHT22;23796;51.458;7.000;2022-08-18T04:01:39;18.80;99.90
37974;DHT22;23796;51.458;7.000;2022-08-18T04:04:07;18.80;99.90
37974;DHT22;23796;51.458;7.000;2022-08-18T04:06:37;18.80;99.90
37974;DHT22;23796;51.458;7.000;2022-08-18T04:09:05;18.80;99.90
37974;DHT22;23796;51.458;7.000;2022-08-18T04:11:32;18.90;99.90
37974;DHT22;23796;51.458;7.000;2022-08-18T04:13:59;18.90;99.90
37974;DHT22;23796;51.458;7.000;2022-08-18T04:16:28;18.90;99.90
37974;DHT22;23796;51.458;7.000;2022-08-18T04:18:57;18.90;99.90
37974;DHT22;23796;51.458;7.000;2022-08-18T04:21:27;18.90;99.90
37974;DHT22;23796;51.458;7.000;2022-08-18T04:23:57;19.00;99.90
37974;DHT22;23796;51.458;7.000;2022-08-18T04:26:29;19.00;99.90
37974;DHT22;23796;51.458;7.000;2022-08-18T04:28:56;19.00;99.90
37974;DHT22;23796;51.458;7.000;2022-08-18T04:31:26;18.90;99.90
37974;DHT22;23796;51.458;7.000;2022-08-18T04:33:54;18.90;99.90
37974;DHT22;23796;51.458;7.000;2022-08-18T04:36:24;18.90;99.90
37974;DHT22;23796;51.458;7.000;2022-08-18T04:38:52;19.00;99.90
37974;DHT22;23796;51.458;7.000;2022-08-18T04:41:18;19.00;99.90
37974;DHT22;23796;51.458;7.000;2022-08-18T04:44:02;19.00;99.90
37974;DHT22;23796;51.458;7.000;2022-08-18T04:46:39;19.00;99.90
37974;DHT22;23796;51.458;7.000;2022-08-18T04:49:05;19.00;99.90
37974;DHT22;23796;51.458;7.000;2022-08-18T04:51:32;19.00;99.90
37974;DHT22;23796;51.458;7.000;2022-08-18T04:54:00;19.00;99.90
37974;DHT22;23796;51.458;7.000;2022-08-18T04:56:37;19.10;99.90
37974;DHT22;23796;51.458;7.000;2022-08-18T05:01:42;19.40;99.90
37974;DHT22;23796;51.458;7.000;2022-08-18T05:04:10;19.50;99.90
37974;DHT22;23796;51.458;7.000;2022-08-18T05:06:41;19.60;99.90
37974;DHT22;23796;51.458;7.000;2022-08-18T05:09:09;19.60;99.90
37974;DHT22;23796;51.458;7.000;2022-08-18T05:11:36;19.70;99.90
37974;DHT22;23796;51.458;7.000;2022-08-18T05:14:05;19.70;99.90
37974;DHT22;23796;51.458;7.000;2022-08-18T05:16:34;19.70;99.90
37974;DHT22;23796;51.458;7.000;2022-08-18T05:19:09;19.60;99.90
37974;DHT22;23796;51.458;7.000;2022-08-18T05:21:38;19.70;99.90
37974;DHT22;23796;51.458;7.000;2022-08-18T05:24:09;19.80;99.90
37974;DHT22;23796;51.458;7.000;2022-08-18T05:26:35;19.90;99.90
37974;DHT22;23796;51.458;7.000;2022-08-18T05:29:01;20.10;99.90
37974;DHT22;23796;51.458;7.000;2022-08-18T05:31:30;20.20;99.90
37974;DHT22;23796;51.458;7.000;2022-08-18T05:33:57;20.20;99.90
37974;DHT22;23796;51.458;7.000;2022-08-18T05:36:33;20.20;99.90
37974;DHT22;23796;51.458;7.000;2022-08-18T05:39:27;20.20;99.90
37974;DHT22;23796;51.458;7.000;2022-08-18T05:41:56;20.20;99.90
37974;DHT22;23796;51.458;7.000;2022-08-18T05:44:28;20.20;99.90
37974;DHT22;23796;51.458;7.000;2022-08-18T05:46:59;20.30;99.90
37974;DHT22;23796;51.458;7.000;2022-08-18T05:49:29;20.30;99.90
37974;DHT22;23796;51.458;7.000;2022-08-18T05:52:04;20.30;99.90
37974;DHT22;23796;51.458;7.000;2022-08-18T05:54:55;20.30;99.90
37974;DHT22;23796;51.458;7.000;2022-08-18T05:58:00;20.40;99.90
37974;DHT22;23796;51.458;7.000;2022-08-18T06:00:30;20.50;99.90
37974;DHT22;23796;51.458;7.000;2022-08-18T06:03:18;20.60;99.90
37974;DHT22;23796;51.458;7.000;2022-08-18T06:06:00;20.50;99.90
37974;DHT22;23796;51.458;7.000;2022-08-18T06:08:31;20.70;99.90
37974;DHT22;23796;51.458;7.000;2022-08-18T06:11:01;20.70;99.90
37974;DHT22;23796;51.458;7.000;2022-08-18T06:13:26;20.80;99.90
37974;DHT22;23796;51.458;7.000;2022-08-18T06:16:04;20.80;99.90
37974;DHT22;23796;51.458;7.000;2022-08-18T06:23:42;20.90;99.90
37974;DHT22;23796;51.458;7.000;2022-08-18T06:26:19;20.90;99.90
37974;DHT22;23796;51.458;7.000;2022-08-18T06:39:55;20.80;99.90
37974;DHT22;23796;51.458;7.000;2022-08-18T06:42:27;20.70;99.90
37974;DHT22;23796;51.458;7.000;2022-08-18T06:45:08;20.50;99.90
37974;DHT22;23796;51.458;7.000;2022-08-18T06:52:58;20.70;99.90
37974;DHT22;23796;51.458;7.000;2022-08-18T06:55:44;20.60;99.90
37974;DHT22;23796;51.458;7.000;2022-08-18T07:01:07;20.50;99.90
37974;DHT22;23796;51.458;7.000;2022-08-18T07:08:53;20.40;99.90
37974;DHT22;23796;51.458;7.000;2022-08-18T07:13:56;20.60;99.90
37974;DHT22;23796;51.458;7.000;2022-08-18T07:16:33;20.70;99.90
37974;DHT22;23796;51.458;7.000;2022-08-18T07:19:13;20.80;99.90
37974;DHT22;23796;51.458;7.000;2022-08-18T07:21:41;20.80;99.90
37974;DHT22;23796;51.458;7.000;2022-08-18T07:24:13;20.90;99.90
37974;DHT22;23796;51.458;7.000;2022-08-18T07:27:04;20.90;99.90
37974;DHT22;23796;51.458;7.000;2022-08-18T07:29:34;21.00;99.90
37974;DHT22;23796;51.458;7.000;2022-08-18T07:32:08;21.00;99.90
37974;DHT22;23796;51.458;7.000;2022-08-18T07:34:42;21.10;99.90
37974;DHT22;23796;51.458;7.000;2022-08-18T07:37:22;21.30;99.90
37974;DHT22;23796;51.458;7.000;2022-08-18T07:42:46;21.50;99.90
37974;DHT22;23796;51.458;7.000;2022-08-18T07:45:41;21.60;99.90
37974;DHT22;23796;51.458;7.000;2022-08-18T07:48:24;21.70;99.90
37974;DHT22;23796;51.458;7.000;2022-08-18T07:51:00;21.80;99.90
37974;DHT22;23796;51.458;7.000;2022-08-18T07:59:49;22.20;99.90
37974;DHT22;23796;51.458;7.000;2022-08-18T08:05:18;22.40;99.90
37974;DHT22;23796;51.458;7.000;2022-08-18T08:07:58;22.40;99.90
37974;DHT22;23796;51.458;7.000;2022-08-18T08:10:39;22.40;99.90
37974;DHT22;23796;51.458;7.000;2022-08-18T08:16:19;21.70;99.90
37974;DHT22;23796;51.458;7.000;2022-08-18T08:21:30;21.70;99.90
37974;DHT22;23796;51.458;7.000;2022-08-18T08:24:17;21.70;99.90
37974;DHT22;23796;51.458;7.000;2022-08-18T08:30:04;21.90;99.90
37974;DHT22;23796;51.458;7.000;2022-08-18T08:32:43;22.10;99.90
37974;DHT22;23796;51.458;7.000;2022-08-18T08:35:17;22.30;99.90
37974;DHT22;23796;51.458;7.000;2022-08-18T08:38:02;22.20;99.90
37974;DHT22;23796;51.458;7.000;2022-08-18T08:43:26;22.20;99.90
37974;DHT22;23796;51.458;7.000;2022-08-18T08:46:28;22.10;99.90
37974;DHT22;23796;51.458;7.000;2022-08-18T08:49:08;22.10;99.90
37974;DHT22;23796;51.458;7.000;2022-08-18T08:51:40;22.10;99.90
37974;DHT22;23796;51.458;7.000;2022-08-18T08:54:30;22.30;99.90
37974;DHT22;23796;51.458;7.000;2022-08-18T08:57:00;22.30;99.90
37974;DHT22;23796;51.458;7.000;2022-08-18T08:59:28;22.30;99.90
37974;DHT22;23796;51.458;7.000;2022-08-18T09:11:09;23.10;99.90
37974;DHT22;23796;51.458;7.000;2022-08-18T09:43:05;23.30;99.90
37974;DHT22;23796;51.458;7.000;2022-08-18T09:51:14;24.00;99.90
37974;DHT22;23796;51.458;7.000;2022-08-18T09:53:56;23.70;99.90
37974;DHT22;23796;51.458;7.000;2022-08-18T10:04:36;22.30;99.90
37974;DHT22;23796;51.458;7.000;2022-08-18T10:07:37;22.60;99.90
37974;DHT22;23796;51.458;7.000;2022-08-18T10:16:44;22.70;99.90
37974;DHT22;23796;51.458;7.000;2022-08-18T10:19:25;22.90;99.90
37974;DHT22;23796;51.458;7.000;2022-08-18T10:24:29;23.20;99.90
37974;DHT22;23796;51.458;7.000;2022-08-18T10:26:59;23.10;99.90
37974;DHT22;23796;51.458;7.000;2022-08-18T10:34:43;23.20;99.90
37974;DHT22;23796;51.458;7.000;2022-08-18T10:37:20;23.30;99.90
37974;DHT22;23796;51.458;7.000;2022-08-18T10:45:24;23.50;99.90
37974;DHT22;23796;51.458;7.000;2022-08-18T10:48:18;23.40;99.90
37974;DHT22;23796;51.458;7.000;2022-08-18T11:01:43;23.80;99.90
37974;DHT22;23796;51.458;7.000;2022-08-18T11:06:54;23.80;99.90
37974;DHT22;23796;51.458;7.000;2022-08-18T11:09:25;23.50;99.90
37974;DHT22;23796;51.458;7.000;2022-08-18T11:11:55;23.60;99.90
37974;DHT22;23796;51.458;7.000;2022-08-18T11:19:37;23.30;99.90
37974;DHT22;23796;51.458;7.000;2022-08-18T11:22:03;23.10;99.90
37974;DHT22;23796;51.458;7.000;2022-08-18T11:24:30;23.00;99.90
37974;DHT22;23796;51.458;7.000;2022-08-18T11:27:05;22.90;99.90
37974;DHT22;23796;51.458;7.000;2022-08-18T11:29:40;22.90;99.90
37974;DHT22;23796;51.458;7.000;2022-08-18T11:34:51;22.90;99.90
37974;DHT22;23796;51.458;7.000;2022-08-18T11:39:56;22.90;99.90
37974;DHT22;23796;51.458;7.000;2022-08-18T11:42:28;23.30;99.90
37974;DHT22;23796;51.458;7.000;2022-08-18T11:47:47;23.90;99.90
37974;DHT22;23796;51.458;7.000;2022-08-18T11:50:32;23.70;99.90
37974;DHT22;23796;51.458;7.000;2022-08-18T11:53:13;23.40;99.90
37974;DHT22;23796;51.458;7.000;2022-08-18T11:55:43;23.50;99.90
37974;DHT22;23796;51.458;7.000;2022-08-18T11:58:09;23.60;99.90
37974;DHT22;23796;51.458;7.000;2022-08-18T12:06:14;23.50;99.90
37974;DHT22;23796;51.458;7.000;2022-08-18T12:08:59;23.80;99.90
37974;DHT22;23796;51.458;7.000;2022-08-18T12:11:34;23.90;99.90
37974;DHT22;23796;51.458;7.000;2022-08-18T12:14:17;24.00;99.90
37974;DHT22;23796;51.458;7.000;2022-08-18T12:16:43;24.10;99.90
37974;DHT22;23796;51.458;7.000;2022-08-18T12:19:11;24.30;99.90
37974;DHT22;23796;51.458;7.000;2022-08-18T12:21:43;24.40;99.90
37974;DHT22;23796;51.458;7.000;2022-08-18T12:24:21;24.40;99.90
37974;DHT22;23796;51.458;7.000;2022-08-18T12:26:47;24.20;99.90
37974;DHT22;23796;51.458;7.000;2022-08-18T12:29:14;24.10;99.90
37974;DHT22;23796;51.458;7.000;2022-08-18T12:31:41;24.00;99.90
37974;DHT22;23796;51.458;7.000;2022-08-18T12:34:09;24.00;99.90
37974;DHT22;23796;51.458;7.000;2022-08-18T12:36:38;24.30;99.90
37974;DHT22;23796;51.458;7.000;2022-08-18T12:39:07;24.70;99.90
37974;DHT22;23796;51.458;7.000;2022-08-18T12:41:32;25.10;99.90
37974;DHT22;23796;51.458;7.000;2022-08-18T12:43:58;25.50;99.90
37974;DHT22;23796;51.458;7.000;2022-08-18T12:46:26;25.70;99.90
37974;DHT22;23796;51.458;7.000;2022-08-18T12:48:52;25.60;99.90
37974;DHT22;23796;51.458;7.000;2022-08-18T12:51:20;25.80;99.90
37974;DHT22;23796;51.458;7.000;2022-08-18T12:53:48;26.00;99.90
37974;DHT22;23796;51.458;7.000;2022-08-18T12:56:24;25.90;99.90
37974;DHT22;23796;51.458;7.000;2022-08-18T12:58:51;25.90;99.90
37974;DHT22;23796;51.458;7.000;2022-08-18T13:01:20;26.00;99.90
37974;DHT22;23796;51.458;7.000;2022-08-18T13:03:47;26.10;99.90
37974;DHT22;23796;51.458;7.000;2022-08-18T13:06:16;26.10;99.90
37974;DHT22;23796;51.458;7.000;2022-08-18T13:08:42;26.20;99.90
37974;DHT22;23796;51.458;7.000;2022-08-18T13:11:07;26.20;99.90
37974;DHT22;23796;51.458;7.000;2022-08-18T13:13:37;26.10;99.90
37974;DHT22;23796;51.458;7.000;2022-08-18T13:16:06;26.10;99.90
37974;DHT22;23796;51.458;7.000;2022-08-18T13:18:38;26.00;99.90
37974;DHT22;23796;51.458;7.000;2022-08-18T13:21:12;26.10;99.90
37974;DHT22;23796;51.458;7.000;2022-08-18T13:23:38;26.00;99.90
37974;DHT22;23796;51.458;7.000;2022-08-18T13:26:07;25.70;99.90
37974;DHT22;23796;51.458;7.000;2022-08-18T13:28:37;25.60;99.90
37974;DHT22;23796;51.458;7.000;2022-08-18T13:31:06;25.60;99.90
37974;DHT22;23796;51.458;7.000;2022-08-18T13:33:32;25.80;99.90
37974;DHT22;23796;51.458;7.000;2022-08-18T13:36:00;26.00;99.90
37974;DHT22;23796;51.458;7.000;2022-08-18T13:38:26;26.10;99.90
37974;DHT22;23796;51.458;7.000;2022-08-18T13:40:53;26.60;99.90
37974;DHT22;23796;51.458;7.000;2022-08-18T13:43:31;26.40;99.90
37974;DHT22;23796;51.458;7.000;2022-08-18T13:45:57;26.20;99.90
37974;DHT22;23796;51.458;7.000;2022-08-18T13:48:28;25.90;99.90
37974;DHT22;23796;51.458;7.000;2022-08-18T13:50:55;25.80;99.90
37974;DHT22;23796;51.458;7.000;2022-08-18T13:53:23;25.60;99.90
37974;DHT22;23796;51.458;7.000;2022-08-18T13:55:52;25.80;99.90
37974;DHT22;23796;51.458;7.000;2022-08-18T13:58:21;26.20;99.90
37974;DHT22;23796;51.458;7.000;2022-08-18T14:00:50;26.80;99.90
37974;DHT22;23796;51.458;7.000;2022-08-18T14:03:18;27.10;99.90
37974;DHT22;23796;51.458;7.000;2022-08-18T14:05:49;27.30;99.90
37974;DHT22;23796;51.458;7.000;2022-08-18T14:08:18;26.80;99.90
37974;DHT22;23796;51.458;7.000;2022-08-18T14:10:46;26.50;99.90
37974;DHT22;23796;51.458;7.000;2022-08-18T14:13:15;26.40;99.90
37974;DHT22;23796;51.458;7.000;2022-08-18T14:15:42;26.40;99.90
37974;DHT22;23796;51.458;7.000;2022-08-18T14:18:10;26.50;99.90
37974;DHT22;23796;51.458;7.000;2022-08-18T14:20:36;26.20;99.90
37974;DHT22;23796;51.458;7.000;2022-08-18T14:23:23;26.00;99.90
37974;DHT22;23796;51.458;7.000;2022-08-18T14:26:08;26.00;99.90
37974;DHT22;23796;51.458;7.000;2022-08-18T14:28:52;26.20;99.90
37974;DHT22;23796;51.458;7.000;2022-08-18T14:31:18;26.30;99.90
37974;DHT22;23796;51.458;7.000;2022-08-18T14:33:46;26.10;99.90
37974;DHT22;23796;51.458;7.000;2022-08-18T14:36:16;26.40;99.90
37974;DHT22;23796;51.458;7.000;2022-08-18T14:38:41;26.20;99.90
37974;DHT22;23796;51.458;7.000;2022-08-18T14:41:09;26.40;99.90
37974;DHT22;23796;51.458;7.000;2022-08-18T14:43:38;26.50;99.90
37974;DHT22;23796;51.458;7.000;2022-08-18T14:46:04;26.80;99.90
37974;DHT22;23796;51.458;7.000;2022-08-18T14:48:30;26.80;99.90
37974;DHT22;23796;51.458;7.000;2022-08-18T14:50:57;27.00;99.90
37974;DHT22;23796;51.458;7.000;2022-08-18T14:53:29;26.90;99.90
37974;DHT22;23796;51.458;7.000;2022-08-18T14:55:56;27.00;99.90
37974;DHT22;23796;51.458;7.000;2022-08-18T14:58:24;27.20;99.90
37974;DHT22;23796;51.458;7.000;2022-08-18T15:00:54;27.30;99.90
37974;DHT22;23796;51.458;7.000;2022-08-18T15:03:24;27.40;99.90
37974;DHT22;23796;51.458;7.000;2022-08-18T15:05:50;27.40;99.90
37974;DHT22;23796;51.458;7.000;2022-08-18T15:08:16;27.60;99.90
37974;DHT22;23796;51.458;7.000;2022-08-18T15:10:46;27.60;99.90
37974;DHT22;23796;51.458;7.000;2022-08-18T15:13:13;27.60;99.90
37974;DHT22;23796;51.458;7.000;2022-08-18T15:15:41;27.50;99.90
37974;DHT22;23796;51.458;7.000;2022-08-18T15:18:09;27.30;99.90
37974;DHT22;23796;51.458;7.000;2022-08-18T15:20:34;27.20;99.90
37974;DHT22;23796;51.458;7.000;2022-08-18T15:23:20;27.40;99.90
37974;DHT22;23796;51.458;7.000;2022-08-18T15:26:09;27.60;99.90
37974;DHT22;23796;51.458;7.000;2022-08-18T15:28:35;27.70;99.90
37974;DHT22;23796;51.458;7.000;2022-08-18T15:31:02;27.80;99.90
37974;DHT22;23796;51.458;7.000;2022-08-18T15:33:30;27.40;99.90
37974;DHT22;23796;51.458;7.000;2022-08-18T15:35:56;27.10;99.90
37974;DHT22;23796;51.458;7.000;2022-08-18T15:38:25;27.20;99.90
37974;DHT22;23796;51.458;7.000;2022-08-18T15:40:54;27.10;99.90
37974;DHT22;23796;51.458;7.000;2022-08-18T15:43:23;27.10;99.90
37974;DHT22;23796;51.458;7.000;2022-08-18T15:45:50;26.80;99.90
37974;DHT22;23796;51.458;7.000;2022-08-18T15:48:18;26.90;99.90
37974;DHT22;23796;51.458;7.000;2022-08-18T15:50:45;27.10;99.90
37974;DHT22;23796;51.458;7.000;2022-08-18T15:53:19;27.30;99.90
37974;DHT22;23796;51.458;7.000;2022-08-18T15:55:45;27.50;99.90
37974;DHT22;23796;51.458;7.000;2022-08-18T15:58:12;27.30;99.90
37974;DHT22;23796;51.458;7.000;2022-08-18T16:00:43;27.00;99.90
37974;DHT22;23796;51.458;7.000;2022-08-18T16:03:11;27.10;99.90
37974;DHT22;23796;51.458;7.000;2022-08-18T16:05:44;27.00;99.90
37974;DHT22;23796;51.458;7.000;2022-08-18T16:08:10;27.10;99.90
37974;DHT22;23796;51.458;7.000;2022-08-18T16:10:39;27.20;99.90
37974;DHT22;23796;51.458;7.000;2022-08-18T16:13:08;27.40;99.90
37974;DHT22;23796;51.458;7.000;2022-08-18T16:15:40;27.70;99.90
37974;DHT22;23796;51.458;7.000;2022-08-18T16:18:10;28.00;99.90
37974;DHT22;23796;51.458;7.000;2022-08-18T16:20:36;28.10;99.90
37974;DHT22;23796;51.458;7.000;2022-08-18T16:23:06;27.90;99.90
37974;DHT22;23796;51.458;7.000;2022-08-18T16:25:32;27.50;99.90
37974;DHT22;23796;51.458;7.000;2022-08-18T16:28:02;27.30;99.90
37974;DHT22;23796;51.458;7.000;2022-08-18T16:30:28;27.40;99.90
37974;DHT22;23796;51.458;7.000;2022-08-18T16:33:00;27.60;99.90
37974;DHT22;23796;51.458;7.000;2022-08-18T16:35:27;27.60;99.90
37974;DHT22;23796;51.458;7.000;2022-08-18T16:37:53;27.60;99.90
37974;DHT22;23796;51.458;7.000;2022-08-18T16:40:19;27.60;99.90
37974;DHT22;23796;51.458;7.000;2022-08-18T16:42:53;28.10;99.90
37974;DHT22;23796;51.458;7.000;2022-08-18T16:45:19;28.40;99.90
37974;DHT22;23796;51.458;7.000;2022-08-18T16:47:48;28.80;99.90
37974;DHT22;23796;51.458;7.000;2022-08-18T16:50:15;28.70;99.90
37974;DHT22;23796;51.458;7.000;2022-08-18T16:52:42;28.50;99.90
37974;DHT22;23796;51.458;7.000;2022-08-18T16:55:10;28.20;99.90
37974;DHT22;23796;51.458;7.000;2022-08-18T16:57:42;28.20;99.90
37974;DHT22;23796;51.458;7.000;2022-08-18T17:00:31;28.80;99.90
37974;DHT22;23796;51.458;7.000;2022-08-18T17:03:17;29.00;99.90
37974;DHT22;23796;51.458;7.000;2022-08-18T17:06:19;28.80;99.90
37974;DHT22;23796;51.458;7.000;2022-08-18T17:08:48;28.90;99.90
37974;DHT22;23796;51.458;7.000;2022-08-18T17:11:17;28.90;99.90
37974;DHT22;23796;51.458;7.000;2022-08-18T17:13:47;29.00;99.90
37974;DHT22;23796;51.458;7.000;2022-08-18T17:16:17;29.10;99.90
37974;DHT22;23796;51.458;7.000;2022-08-18T17:18:46;28.80;99.90
37974;DHT22;23796;51.458;7.000;2022-08-18T17:21:18;29.20;99.90
37974;DHT22;23796;51.458;7.000;2022-08-18T17:23:44;29.40;99.90
37974;DHT22;23796;51.458;7.000;2022-08-18T17:28:55;28.50;99.90
37974;DHT22;23796;51.458;7.000;2022-08-18T17:31:22;27.90;99.90
37974;DHT22;23796;51.458;7.000;2022-08-18T17:33:50;27.80;99.90
37974;DHT22;23796;51.458;7.000;2022-08-18T17:36:24;27.60;99.90
37974;DHT22;23796;51.458;7.000;2022-08-18T17:39:00;27.40;99.90
37974;DHT22;23796;51.458;7.000;2022-08-18T17:41:26;27.10;99.90
37974;DHT22;23796;51.458;7.000;2022-08-18T17:43:56;27.00;99.90
37974;DHT22;23796;51.458;7.000;2022-08-18T17:46:24;26.90;99.90
37974;DHT22;23796;51.458;7.000;2022-08-18T17:49:16;26.70;99.90
37974;DHT22;23796;51.458;7.000;2022-08-18T17:51:49;26.70;99.90
37974;DHT22;23796;51.458;7.000;2022-08-18T17:57:00;26.40;99.90
37974;DHT22;23796;51.458;7.000;2022-08-18T18:02:20;26.30;99.90
37974;DHT22;23796;51.458;7.000;2022-08-18T18:04:47;26.40;99.90
37974;DHT22;23796;51.458;7.000;2022-08-18T18:12:30;26.20;99.90
37974;DHT22;23796;51.458;7.000;2022-08-18T18:14:58;26.10;99.90
37974;DHT22;23796;51.458;7.000;2022-08-18T18:17:27;26.00;99.90
37974;DHT22;23796;51.458;7.000;2022-08-18T18:22:40;26.00;99.90
37974;DHT22;23796;51.458;7.000;2022-08-18T18:25:07;25.90;99.90
37974;DHT22;23796;51.458;7.000;2022-08-18T18:33:12;25.70;99.90
37974;DHT22;23796;51.458;7.000;2022-08-18T18:35:55;25.60;99.90
37974;DHT22;23796;51.458;7.000;2022-08-18T18:41:02;25.30;99.90
37974;DHT22;23796;51.458;7.000;2022-08-18T18:43:43;25.20;99.90
37974;DHT22;23796;51.458;7.000;2022-08-18T18:51:27;24.90;99.90
37974;DHT22;23796;51.458;7.000;2022-08-18T18:53:59;24.80;99.90
37974;DHT22;23796;51.458;7.000;2022-08-18T18:56:37;24.70;99.90
37974;DHT22;23796;51.458;7.000;2022-08-18T19:04:36;24.50;99.90
37974;DHT22;23796;51.458;7.000;2022-08-18T19:07:17;24.50;99.90
37974;DHT22;23796;51.458;7.000;2022-08-18T19:10:06;24.40;99.90
37974;DHT22;23796;51.458;7.000;2022-08-18T19:12:49;24.30;99.90
37974;DHT22;23796;51.458;7.000;2022-08-18T19:15:16;24.30;99.90